Unity Force — C6BY4 — position and weather

sailwx.info

Track history (hours):
 
Tides and Currents Weather Stations Pressure Air Temp Water Temp Dewpoint Dewpoint Depression Visibility Wind Speed Wind Dir Waves Ship Positions

Unity Force

Last reported at 2018-Feb-02 05:20 UTC. Time now 2018-Feb-22 03:21 UTC.
Position N 35°49' W 126°49'.
Warning: this ship's position is 19 days out of date.

Length 200 m; draft 12.7 m.

Type: Cargo ship. MMSI: 311000400.

Date/timePositionNaut miles runAvg speedWind from/ knotsBaromVisibWave heightAir tempDewpointWater temp
2018-Feb-02 05:20N 35°49' W 126°49'411.7
2018-Feb-02 05:00N 35°52' W 126°51'611.6
2018-Feb-02 04:30N 35°57' W 126°55'1211.5
2018-Feb-02 03:30N 36°07' W 127°03'1311.6
2018-Feb-02 02:23N 36°18' W 127°12'511.7
2018-Feb-02 01:59N 36°21' W 127°15'611.5
2018-Feb-02 01:30N 36°26' W 127°18'611.4
2018-Feb-02 00:58N 36°31' W 127°22'511.7
2018-Feb-02 00:30N 36°36' W 127°26'611.4
2018-Feb-02 00:00N 36°41' W 127°30'611.4
2018-Feb-01 23:29N 36°46' W 127°34'611.6
2018-Feb-01 23:00N 36°51' W 127°37'1211.7
2018-Feb-01 22:01N 37°01' W 127°45'611.7
2018-Feb-01 21:30N 37°06' W 127°48'2311.5
2018-Feb-01 19:30N 37°28' W 127°57'511.2
2018-Feb-01 19:00N 37°33' W 127°59'611.1
2018-Feb-01 18:27N 37°39' W 128°01'910.9
2018-Feb-01 17:38N 37°47' W 128°05'110.8
2018-Feb-01 17:30N 37°49' W 128°06'2711.3
2018-Feb-01 15:06N 38°15' W 128°16'111.7
2018-Feb-01 15:00N 38°16' W 128°17'2011.4
2018-Feb-01 13:15N 38°35' W 128°25'  
2018-Jan-29 18:06N 48°14' W 125°30'4 9.1
2018-Jan-29 17:41N 48°16' W 125°25'2 8.5
2018-Jan-29 17:26N 48°18' W 125°23'4 8.5
2018-Jan-29 16:57N 48°20' W 125°18'9 7.8
2018-Jan-29 15:52N 48°25' W 125°08'3 7.1
2018-Jan-29 15:27N 48°27' W 125°05'5 6.5
2018-Jan-29 14:39N 48°31' W 124°59'19 8.5
2018-Jan-29 12:24N 48°27' W 124°31'410.7
2018-Jan-29 12:00N 48°25' W 124°25'610.9
2018-Jan-29 11:30N 48°23' W 124°17'510.9
2018-Jan-29 11:00N 48°21' W 124°09'510.9
2018-Jan-29 10:30N 48°19' W 124°02'510.6
2018-Jan-29 10:00N 48°17' W 123°54'610.0
2018-Jan-29 09:26N 48°17' W 123°46'5 9.7
2018-Jan-29 08:55N 48°16' W 123°38'4 9.0
2018-Jan-29 08:30N 48°16' W 123°33'4 7.5
2018-Jan-29 08:00N 48°18' W 123°28'4 7.8
2018-Jan-29 07:29N 48°22' W 123°25'4 8.1
2018-Jan-29 07:00N 48°23' W 123°20'4 8.2
2018-Jan-29 06:30N 48°24' W 123°14'4 7.8
2018-Jan-29 06:00N 48°28' W 123°12'611.8
2018-Jan-29 05:30N 48°34' W 123°13'612.8
2018-Jan-29 05:00N 48°40' W 123°15'611.3
2018-Jan-29 04:30N 48°44' W 123°08'612.0
2018-Jan-29 04:00N 48°48' W 123°01'612.3
2018-Jan-29 03:30N 48°53' W 123°06'713.3
2018-Jan-29 03:00N 48°57' W 123°14'613.0
2018-Jan-29 02:30N 49°01' W 123°21'611.7
2018-Jan-29 02:00N 49°07' W 123°24'713.2
2018-Jan-29 01:30N 49°13' W 123°21'612.2
2018-Jan-29 01:00N 49°19' W 123°17'611.4
2018-Jan-29 00:30N 49°19' W 123°08'3 5.3
2018-Jan-29 00:00N 49°18' W 123°04'0 0.3
2018-Jan-28 23:30N 49°18' W 123°04'0 0.0
2018-Jan-28 23:00N 49°18' W 123°04'0 0.1
2018-Jan-28 22:30N 49°18' W 123°04'0 0.2
2018-Jan-28 22:00N 49°18' W 123°04'0 0.1
2018-Jan-28 21:30N 49°18' W 123°04'0 0.1
2018-Jan-28 20:54N 49°18' W 123°04'0 0.0
2018-Jan-28 20:30N 49°18' W 123°04'0 0.1
2018-Jan-28 19:57N 49°18' W 123°04'0 0.0
2018-Jan-28 19:30N 49°18' W 123°04'0 0.0
2018-Jan-28 19:00N 49°18' W 123°04'0 0.2
2018-Jan-28 18:30N 49°18' W 123°04'0 0.2
2018-Jan-28 18:00N 49°18' W 123°04'0 0.1
2018-Jan-28 17:30N 49°18' W 123°04'0 0.1
2018-Jan-28 17:00N 49°18' W 123°04'0 0.1
2018-Jan-28 16:30N 49°18' W 123°04'0 0.2
2018-Jan-28 16:00N 49°18' W 123°04'2 3.0
2018-Jan-28 15:30N 49°18' W 123°06'4 8.3
2018-Jan-28 15:00N 49°19' W 123°12'510.2
2018-Jan-28 14:30N 49°15' W 123°18'611.4
2018-Jan-28 14:00N 49°10' W 123°19'611.8
2018-Jan-28 13:30N 49°04' W 123°19'612.0
2018-Jan-28 13:00N 48°59' W 123°13'612.7
2018-Jan-28 12:30N 48°55' W 123°06'612.4
2018-Jan-28 12:00N 48°50' W 122°60'510.0
2018-Jan-28 11:29N 48°45' W 123°03'612.9
2018-Jan-28 11:00N 48°42' W 123°11'5 9.9
2018-Jan-28 10:30N 48°38' W 123°14'714.2
2018-Jan-28 10:00N 48°31' W 123°11'612.3
2018-Jan-28 09:30N 48°25' W 123°11'612.7
2018-Jan-28 09:01N 48°22' W 123°20'4 8.1
2018-Jan-28 08:31N 48°19' W 123°24'5 9.3
2018-Jan-28 07:59N 48°15' W 123°27'611.6
2018-Jan-28 07:30N 48°14' W 123°35'713.4
2018-Jan-28 07:00N 48°13' W 123°45'713.3
2018-Jan-28 06:30N 48°13' W 123°55'612.9
2018-Jan-28 06:01N 48°16' W 124°04'712.7
2018-Jan-28 05:28N 48°19' W 124°13'612.2
2018-Jan-28 05:00N 48°21' W 124°21'611.7
2018-Jan-28 04:30N 48°24' W 124°29'611.5
2018-Jan-28 04:01N 48°26' W 124°37'611.0
2018-Jan-28 03:31N 48°29' W 124°44'510.7
2018-Jan-28 03:00N 48°29' W 124°52'510.3
2018-Jan-28 02:31N 48°29' W 125°00'510.1
2018-Jan-28 02:00N 48°29' W 125°08'5 9.9
2018-Jan-28 01:31N 48°30' W 125°15'510.0
2018-Jan-28 01:00N 48°31' W 125°22'4 8.7
2018-Jan-28 00:30N 48°33' W 125°28'3 5.7
2018-Jan-28 00:00N 48°34' W 125°32'4 9.0
2018-Jan-27 23:31N 48°37' W 125°38'5 9.2
2018-Jan-27 23:01N 48°39' W 125°44'5 9.6
2018-Jan-27 22:30N 48°41' W 125°50'5 9.9
2018-Jan-27 22:01N 48°43' W 125°57'5 9.7
2018-Jan-27 21:30N 48°46' W 126°03'510.0
2018-Jan-27 21:00N 48°48' W 126°10'5 9.7
2018-Jan-27 20:30N 48°51' W 126°16'510.0
2018-Jan-27 20:00N 48°53' W 126°23'5 9.5
2018-Jan-27 19:30N 48°56' W 126°29'5 9.9
2018-Jan-27 19:01N 48°58' W 126°36'18 9.6
2018-Jan-27 17:11N 49°06' W 126°60'2 9.9
2018-Jan-27 17:01N 49°07' W 127°02'7 9.8
2018-Jan-27 16:17N 49°10' W 127°12'28710.1
2018-Jan-26 11:47N 53°23' W 130°48'610.8
2018-Jan-26 11:12N 53°29' W 130°51'610.7
2018-Jan-26 10:40N 53°34' W 130°54'210.7
2018-Jan-26 10:31N 53°36' W 130°55'510.3
2018-Jan-26 10:01N 53°41' W 130°57'510.6
2018-Jan-26 09:30N 53°46' W 130°58'510.6
2018-Jan-26 09:00N 53°51' W 130°59'510.4
2018-Jan-26 08:29N 53°57' W 131°00'510.4
2018-Jan-26 08:01N 54°02' W 131°01'510.1
2018-Jan-26 07:31N 54°07' W 131°01'510.3
2018-Jan-26 07:00N 54°12' W 131°02'5 9.5
2018-Jan-26 06:30N 54°17' W 131°01'4 9.0
2018-Jan-26 06:01N 54°19' W 130°55'510.3
2018-Jan-26 05:31N 54°16' W 130°47'612.4
2018-Jan-26 05:00N 54°14' W 130°37'612.6
2018-Jan-26 04:30N 54°12' W 130°27'4 8.7
2018-Jan-26 04:01N 54°15' W 130°21'4 8.3
2018-Jan-26 03:30N 54°19' W 130°21'1 2.9
2018-Jan-26 03:00N 54°20' W 130°19'0 0.1
2018-Jan-26 02:30N 54°20' W 130°19'0 0.0
2018-Jan-26 02:00N 54°20' W 130°19'0 0.1
2018-Jan-26 01:30N 54°20' W 130°19'0 0.1
2018-Jan-26 01:00N 54°20' W 130°19'0 0.1
2018-Jan-26 00:30N 54°20' W 130°19'0 0.0
2018-Jan-26 00:00N 54°20' W 130°19'0 0.1
2018-Jan-25 23:27N 54°20' W 130°19'0 0.1
2018-Jan-25 23:00N 54°20' W 130°19'0 0.0
2018-Jan-25 22:30N 54°20' W 130°19'0 0.0
2018-Jan-25 22:00N 54°20' W 130°19'0 0.0
2018-Jan-25 21:30N 54°20' W 130°19'0 0.1
2018-Jan-25 20:55N 54°20' W 130°19'0 0.0
2018-Jan-25 20:28N 54°20' W 130°19'0 0.0
2018-Jan-25 19:58N 54°20' W 130°19'0 0.1
2018-Jan-25 19:28N 54°20' W 130°19'0 0.0
2018-Jan-25 18:58N 54°20' W 130°19'0 0.0
2018-Jan-25 18:28N 54°20' W 130°19'0 0.0
2018-Jan-25 17:58N 54°20' W 130°19'0 0.0
2018-Jan-25 17:28N 54°20' W 130°19'0 0.1
2018-Jan-25 16:58N 54°20' W 130°19'0 0.0
2018-Jan-25 16:28N 54°20' W 130°19'0 0.0
2018-Jan-25 15:58N 54°20' W 130°19'0 0.1
2018-Jan-25 15:28N 54°20' W 130°19'0 0.1
2018-Jan-25 14:58N 54°20' W 130°19'0 0.0
2018-Jan-25 14:28N 54°20' W 130°19'0 0.1
2018-Jan-25 13:58N 54°20' W 130°19'0 0.0
2018-Jan-25 13:28N 54°20' W 130°19'0 0.0
2018-Jan-25 12:58N 54°20' W 130°19'0 0.0
2018-Jan-25 12:28N 54°20' W 130°19'0 0.1
2018-Jan-25 11:58N 54°20' W 130°19'0 0.1
2018-Jan-25 11:28N 54°20' W 130°19'0 0.0
2018-Jan-25 10:58N 54°20' W 130°19'0 0.0
2018-Jan-25 10:28N 54°20' W 130°19'0 0.0
2018-Jan-25 09:58N 54°20' W 130°19'0 0.0
2018-Jan-25 09:28N 54°20' W 130°19'0 0.0
2018-Jan-25 08:58N 54°20' W 130°19'0 0.0
2018-Jan-25 08:25N 54°20' W 130°19'0 0.1
2018-Jan-25 07:58N 54°20' W 130°19'0 0.0
2018-Jan-25 07:28N 54°20' W 130°19'0 0.1
2018-Jan-25 06:58N 54°20' W 130°19'0 0.0
2018-Jan-25 06:28N 54°20' W 130°19'0 0.0
2018-Jan-25 05:58N 54°20' W 130°19'0 0.0
2018-Jan-25 05:28N 54°20' W 130°19'0 0.0
2018-Jan-25 04:58N 54°20' W 130°19'0 0.0
2018-Jan-25 04:28N 54°20' W 130°19'0 0.0
2018-Jan-25 03:58N 54°20' W 130°19'0 0.0
2018-Jan-25 03:28N 54°20' W 130°19'0 0.1
2018-Jan-25 02:58N 54°20' W 130°19'0 0.1
2018-Jan-25 02:28N 54°20' W 130°19'0 0.1
2018-Jan-25 01:58N 54°20' W 130°19'0 1.0
2018-Jan-25 01:31N 54°20' W 130°19'2 3.7
2018-Jan-25 01:00N 54°18' W 130°22'4 7.7
2018-Jan-25 00:30N 54°14' W 130°21'1 1.1
2018-Jan-24 23:59N 54°14' W 130°20'0 0.0
2018-Jan-24 23:29N 54°14' W 130°20'0 0.0
2018-Jan-24 22:59N 54°14' W 130°20'0 0.0
2018-Jan-24 22:29N 54°14' W 130°20'0 0.0
2018-Jan-24 21:59N 54°14' W 130°20'0 0.0
2018-Jan-24 21:29N 54°14' W 130°20'0 0.0
2018-Jan-24 20:59N 54°14' W 130°20'0 0.0
2018-Jan-24 20:29N 54°14' W 130°20'0 0.0
2018-Jan-24 19:59N 54°14' W 130°20'0 0.0
2018-Jan-24 19:29N 54°14' W 130°20'0 0.0
2018-Jan-24 18:59N 54°14' W 130°20'0 0.0
2018-Jan-24 18:29N 54°14' W 130°20'0 0.0
2018-Jan-24 17:59N 54°14' W 130°20'0 0.0
2018-Jan-24 17:29N 54°14' W 130°20'0 0.0
2018-Jan-24 16:59N 54°14' W 130°20'0 0.0
2018-Jan-24 16:29N 54°14' W 130°20'0 0.0
2018-Jan-24 15:59N 54°14' W 130°20'0 0.0
2018-Jan-24 15:29N 54°14' W 130°20'0 0.0
2018-Jan-24 14:59N 54°14' W 130°20'0 0.0
2018-Jan-24 14:29N 54°14' W 130°20'0 0.0
2018-Jan-24 13:59N 54°14' W 130°20'0 0.0
2018-Jan-24 13:29N 54°14' W 130°20'0 0.0
2018-Jan-24 12:59N 54°14' W 130°20'0 0.0
2018-Jan-24 12:29N 54°14' W 130°20'0 0.0
2018-Jan-24 11:59N 54°14' W 130°20'0 0.0
2018-Jan-24 11:29N 54°14' W 130°20'0 0.0
2018-Jan-24 10:59N 54°14' W 130°20'0 0.0
2018-Jan-24 10:29N 54°14' W 130°20'0 0.0
2018-Jan-24 09:59N 54°14' W 130°20'0 0.0
2018-Jan-24 09:29N 54°14' W 130°20'0 0.0
2018-Jan-24 08:59N 54°14' W 130°20'0 0.0
2018-Jan-24 08:29N 54°14' W 130°20'0 0.0
2018-Jan-24 07:59N 54°14' W 130°20'0 0.0
2018-Jan-24 07:29N 54°14' W 130°20'0 0.0
2018-Jan-24 06:59N 54°14' W 130°20'0 0.0
2018-Jan-24 06:29N 54°14' W 130°20'0 0.0
2018-Jan-24 05:59N 54°14' W 130°20'0 0.0
2018-Jan-24 05:29N 54°14' W 130°20'0 0.0
2018-Jan-24 04:59N 54°14' W 130°20'0 0.0
2018-Jan-24 04:29N 54°14' W 130°20'0 0.0
2018-Jan-24 03:59N 54°14' W 130°20'0 0.0
2018-Jan-24 03:29N 54°14' W 130°20'0 0.0
2018-Jan-24 02:59N 54°14' W 130°20'0 0.0
2018-Jan-24 02:29N 54°14' W 130°20'0 0.0
2018-Jan-24 01:59N 54°14' W 130°20'0 0.0
2018-Jan-24 01:29N 54°14' W 130°20'0 0.0
2018-Jan-24 00:59N 54°14' W 130°20'0 0.0
2018-Jan-24 00:29N 54°14' W 130°20'0 0.0
2018-Jan-23 23:59N 54°14' W 130°20'0 0.0
2018-Jan-23 23:29N 54°14' W 130°20'0 0.0
2018-Jan-23 22:59N 54°14' W 130°20'0 0.0
2018-Jan-23 22:29N 54°14' W 130°20'0 0.0
2018-Jan-23 21:59N 54°14' W 130°20'0 0.0
2018-Jan-23 21:29N 54°14' W 130°20'0 0.0
2018-Jan-23 20:59N 54°14' W 130°20'0 0.0
2018-Jan-23 20:29N 54°14' W 130°20'0 0.0
2018-Jan-23 19:59N 54°14' W 130°20'0 0.0
2018-Jan-23 19:29N 54°14' W 130°20'0 0.0
2018-Jan-23 18:59N 54°14' W 130°20'0 0.0
2018-Jan-23 18:29N 54°14' W 130°20'0 0.0
2018-Jan-23 17:59N 54°14' W 130°20'0 0.0
2018-Jan-23 17:29N 54°14' W 130°20'0 0.0
2018-Jan-23 16:59N 54°14' W 130°20'0 0.0
2018-Jan-23 16:29N 54°14' W 130°20'0 0.0
2018-Jan-23 15:59N 54°14' W 130°20'0 0.0
2018-Jan-23 15:29N 54°14' W 130°20'0 0.0
2018-Jan-23 14:59N 54°14' W 130°20'0 0.0
2018-Jan-23 14:29N 54°14' W 130°20'0 0.0
2018-Jan-23 13:59N 54°14' W 130°20'0 0.0
2018-Jan-23 13:29N 54°14' W 130°20'0 0.0
2018-Jan-23 12:59N 54°14' W 130°20'0 0.0
2018-Jan-23 12:29N 54°14' W 130°20'0 0.0
2018-Jan-23 11:59N 54°14' W 130°20'0 0.0
2018-Jan-23 11:29N 54°14' W 130°20'0 0.0
2018-Jan-23 10:59N 54°14' W 130°20'0 0.0
2018-Jan-23 10:29N 54°14' W 130°20'0 0.0
2018-Jan-23 09:59N 54°14' W 130°20'0 0.0
2018-Jan-23 09:29N 54°14' W 130°20'0 0.0
2018-Jan-23 08:59N 54°14' W 130°20'0 0.0
2018-Jan-23 08:29N 54°14' W 130°20'0 0.0
2018-Jan-23 07:59N 54°14' W 130°20'0 0.0
2018-Jan-23 07:29N 54°14' W 130°20'0 0.0
2018-Jan-23 06:59N 54°14' W 130°20'0 0.0
2018-Jan-23 06:29N 54°14' W 130°20'0 0.0
2018-Jan-23 05:59N 54°14' W 130°20'0 0.0
2018-Jan-23 05:29N 54°14' W 130°20'  
Track history (hours):
 
Tides and Currents Weather Stations Pressure Air Temp Water Temp Dewpoint Dewpoint Depression Visibility Wind Speed Wind Dir Waves Ship Positions

Unity Force

Last reported at 2018-Feb-02 05:20 UTC. Time now 2018-Feb-22 03:21 UTC.
Position N 35°49' W 126°49'.
Warning: this ship's position is 19 days out of date.

Length 200 m; draft 12.7 m.

Type: Cargo ship. MMSI: 311000400.

Date/timePositionNaut miles runAvg speedWind from/ knotsBaromVisibWave heightAir tempDewpointWater temp
2018-Feb-02 05:20N 35°49' W 126°49'411.7
2018-Feb-02 05:00N 35°52' W 126°51'611.6
2018-Feb-02 04:30N 35°57' W 126°55'1211.5
2018-Feb-02 03:30N 36°07' W 127°03'1311.6
2018-Feb-02 02:23N 36°18' W 127°12'511.7
2018-Feb-02 01:59N 36°21' W 127°15'611.5
2018-Feb-02 01:30N 36°26' W 127°18'611.4
2018-Feb-02 00:58N 36°31' W 127°22'511.7
2018-Feb-02 00:30N 36°36' W 127°26'611.4
2018-Feb-02 00:00N 36°41' W 127°30'611.4
2018-Feb-01 23:29N 36°46' W 127°34'611.6
2018-Feb-01 23:00N 36°51' W 127°37'1211.7
2018-Feb-01 22:01N 37°01' W 127°45'611.7
2018-Feb-01 21:30N 37°06' W 127°48'2311.5
2018-Feb-01 19:30N 37°28' W 127°57'511.2
2018-Feb-01 19:00N 37°33' W 127°59'611.1
2018-Feb-01 18:27N 37°39' W 128°01'910.9
2018-Feb-01 17:38N 37°47' W 128°05'110.8
2018-Feb-01 17:30N 37°49' W 128°06'2711.3
2018-Feb-01 15:06N 38°15' W 128°16'111.7
2018-Feb-01 15:00N 38°16' W 128°17'2011.4
2018-Feb-01 13:15N 38°35' W 128°25'  
2018-Jan-29 18:06N 48°14' W 125°30'4 9.1
2018-Jan-29 17:41N 48°16' W 125°25'2 8.5
2018-Jan-29 17:26N 48°18' W 125°23'4 8.5
2018-Jan-29 16:57N 48°20' W 125°18'9 7.8
2018-Jan-29 15:52N 48°25' W 125°08'3 7.1
2018-Jan-29 15:27N 48°27' W 125°05'5 6.5
2018-Jan-29 14:39N 48°31' W 124°59'19 8.5
2018-Jan-29 12:24N 48°27' W 124°31'410.7
2018-Jan-29 12:00N 48°25' W 124°25'610.9
2018-Jan-29 11:30N 48°23' W 124°17'510.9
2018-Jan-29 11:00N 48°21' W 124°09'510.9
2018-Jan-29 10:30N 48°19' W 124°02'510.6
2018-Jan-29 10:00N 48°17' W 123°54'610.0
2018-Jan-29 09:26N 48°17' W 123°46'5 9.7
2018-Jan-29 08:55N 48°16' W 123°38'4 9.0
2018-Jan-29 08:30N 48°16' W 123°33'4 7.5
2018-Jan-29 08:00N 48°18' W 123°28'4 7.8
2018-Jan-29 07:29N 48°22' W 123°25'4 8.1
2018-Jan-29 07:00N 48°23' W 123°20'4 8.2
2018-Jan-29 06:30N 48°24' W 123°14'4 7.8
2018-Jan-29 06:00N 48°28' W 123°12'611.8
2018-Jan-29 05:30N 48°34' W 123°13'612.8
2018-Jan-29 05:00N 48°40' W 123°15'611.3
2018-Jan-29 04:30N 48°44' W 123°08'612.0
2018-Jan-29 04:00N 48°48' W 123°01'612.3
2018-Jan-29 03:30N 48°53' W 123°06'713.3
2018-Jan-29 03:00N 48°57' W 123°14'613.0
2018-Jan-29 02:30N 49°01' W 123°21'611.7
2018-Jan-29 02:00N 49°07' W 123°24'713.2
2018-Jan-29 01:30N 49°13' W 123°21'612.2
2018-Jan-29 01:00N 49°19' W 123°17'611.4
2018-Jan-29 00:30N 49°19' W 123°08'3 5.3
2018-Jan-29 00:00N 49°18' W 123°04'0 0.3
2018-Jan-28 23:30N 49°18' W 123°04'0 0.0
2018-Jan-28 23:00N 49°18' W 123°04'0 0.1
2018-Jan-28 22:30N 49°18' W 123°04'0 0.2
2018-Jan-28 22:00N 49°18' W 123°04'0 0.1
2018-Jan-28 21:30N 49°18' W 123°04'0 0.1
2018-Jan-28 20:54N 49°18' W 123°04'0 0.0
2018-Jan-28 20:30N 49°18' W 123°04'0 0.1
2018-Jan-28 19:57N 49°18' W 123°04'0 0.0
2018-Jan-28 19:30N 49°18' W 123°04'0 0.0
2018-Jan-28 19:00N 49°18' W 123°04'0 0.2
2018-Jan-28 18:30N 49°18' W 123°04'0 0.2
2018-Jan-28 18:00N 49°18' W 123°04'0 0.1
2018-Jan-28 17:30N 49°18' W 123°04'0 0.1
2018-Jan-28 17:00N 49°18' W 123°04'0 0.1
2018-Jan-28 16:30N 49°18' W 123°04'0 0.2
2018-Jan-28 16:00N 49°18' W 123°04'2 3.0
2018-Jan-28 15:30N 49°18' W 123°06'4 8.3
2018-Jan-28 15:00N 49°19' W 123°12'510.2
2018-Jan-28 14:30N 49°15' W 123°18'611.4
2018-Jan-28 14:00N 49°10' W 123°19'611.8
2018-Jan-28 13:30N 49°04' W 123°19'612.0
2018-Jan-28 13:00N 48°59' W 123°13'612.7
2018-Jan-28 12:30N 48°55' W 123°06'612.4
2018-Jan-28 12:00N 48°50' W 122°60'510.0
2018-Jan-28 11:29N 48°45' W 123°03'612.9
2018-Jan-28 11:00N 48°42' W 123°11'5 9.9
2018-Jan-28 10:30N 48°38' W 123°14'714.2
2018-Jan-28 10:00N 48°31' W 123°11'612.3
2018-Jan-28 09:30N 48°25' W 123°11'612.7
2018-Jan-28 09:01N 48°22' W 123°20'4 8.1
2018-Jan-28 08:31N 48°19' W 123°24'5 9.3
2018-Jan-28 07:59N 48°15' W 123°27'611.6
2018-Jan-28 07:30N 48°14' W 123°35'713.4
2018-Jan-28 07:00N 48°13' W 123°45'713.3
2018-Jan-28 06:30N 48°13' W 123°55'612.9
2018-Jan-28 06:01N 48°16' W 124°04'712.7
2018-Jan-28 05:28N 48°19' W 124°13'612.2
2018-Jan-28 05:00N 48°21' W 124°21'611.7
2018-Jan-28 04:30N 48°24' W 124°29'611.5
2018-Jan-28 04:01N 48°26' W 124°37'611.0
2018-Jan-28 03:31N 48°29' W 124°44'510.7
2018-Jan-28 03:00N 48°29' W 124°52'510.3
2018-Jan-28 02:31N 48°29' W 125°00'510.1
2018-Jan-28 02:00N 48°29' W 125°08'5 9.9
2018-Jan-28 01:31N 48°30' W 125°15'510.0
2018-Jan-28 01:00N 48°31' W 125°22'4 8.7
2018-Jan-28 00:30N 48°33' W 125°28'3 5.7
2018-Jan-28 00:00N 48°34' W 125°32'4 9.0
2018-Jan-27 23:31N 48°37' W 125°38'5 9.2
2018-Jan-27 23:01N 48°39' W 125°44'5 9.6
2018-Jan-27 22:30N 48°41' W 125°50'5 9.9
2018-Jan-27 22:01N 48°43' W 125°57'5 9.7
2018-Jan-27 21:30N 48°46' W 126°03'510.0
2018-Jan-27 21:00N 48°48' W 126°10'5 9.7
2018-Jan-27 20:30N 48°51' W 126°16'510.0
2018-Jan-27 20:00N 48°53' W 126°23'5 9.5
2018-Jan-27 19:30N 48°56' W 126°29'5 9.9
2018-Jan-27 19:01N 48°58' W 126°36'18 9.6
2018-Jan-27 17:11N 49°06' W 126°60'2 9.9
2018-Jan-27 17:01N 49°07' W 127°02'7 9.8
2018-Jan-27 16:17N 49°10' W 127°12'28710.1
2018-Jan-26 11:47N 53°23' W 130°48'610.8
2018-Jan-26 11:12N 53°29' W 130°51'610.7
2018-Jan-26 10:40N 53°34' W 130°54'210.7
2018-Jan-26 10:31N 53°36' W 130°55'510.3
2018-Jan-26 10:01N 53°41' W 130°57'510.6
2018-Jan-26 09:30N 53°46' W 130°58'510.6
2018-Jan-26 09:00N 53°51' W 130°59'510.4
2018-Jan-26 08:29N 53°57' W 131°00'510.4
2018-Jan-26 08:01N 54°02' W 131°01'510.1
2018-Jan-26 07:31N 54°07' W 131°01'510.3
2018-Jan-26 07:00N 54°12' W 131°02'5 9.5
2018-Jan-26 06:30N 54°17' W 131°01'4 9.0
2018-Jan-26 06:01N 54°19' W 130°55'510.3
2018-Jan-26 05:31N 54°16' W 130°47'612.4
2018-Jan-26 05:00N 54°14' W 130°37'612.6
2018-Jan-26 04:30N 54°12' W 130°27'4 8.7
2018-Jan-26 04:01N 54°15' W 130°21'4 8.3
2018-Jan-26 03:30N 54°19' W 130°21'1 2.9
2018-Jan-26 03:00N 54°20' W 130°19'0 0.1
2018-Jan-26 02:30N 54°20' W 130°19'0 0.0
2018-Jan-26 02:00N 54°20' W 130°19'0 0.1
2018-Jan-26 01:30N 54°20' W 130°19'0 0.1
2018-Jan-26 01:00N 54°20' W 130°19'0 0.1
2018-Jan-26 00:30N 54°20' W 130°19'0 0.0
2018-Jan-26 00:00N 54°20' W 130°19'0 0.1
2018-Jan-25 23:27N 54°20' W 130°19'0 0.1
2018-Jan-25 23:00N 54°20' W 130°19'0 0.0
2018-Jan-25 22:30N 54°20' W 130°19'0 0.0
2018-Jan-25 22:00N 54°20' W 130°19'0 0.0
2018-Jan-25 21:30N 54°20' W 130°19'0 0.1
2018-Jan-25 20:55N 54°20' W 130°19'0 0.0
2018-Jan-25 20:28N 54°20' W 130°19'0 0.0
2018-Jan-25 19:58N 54°20' W 130°19'0 0.1
2018-Jan-25 19:28N 54°20' W 130°19'0 0.0
2018-Jan-25 18:58N 54°20' W 130°19'0 0.0
2018-Jan-25 18:28N 54°20' W 130°19'0 0.0
2018-Jan-25 17:58N 54°20' W 130°19'0 0.0
2018-Jan-25 17:28N 54°20' W 130°19'0 0.1
2018-Jan-25 16:58N 54°20' W 130°19'0 0.0
2018-Jan-25 16:28N 54°20' W 130°19'0 0.0
2018-Jan-25 15:58N 54°20' W 130°19'0 0.1
2018-Jan-25 15:28N 54°20' W 130°19'0 0.1
2018-Jan-25 14:58N 54°20' W 130°19'0 0.0
2018-Jan-25 14:28N 54°20' W 130°19'0 0.1
2018-Jan-25 13:58N 54°20' W 130°19'0 0.0
2018-Jan-25 13:28N 54°20' W 130°19'0 0.0
2018-Jan-25 12:58N 54°20' W 130°19'0 0.0
2018-Jan-25 12:28N 54°20' W 130°19'0 0.1
2018-Jan-25 11:58N 54°20' W 130°19'0 0.1
2018-Jan-25 11:28N 54°20' W 130°19'0 0.0
2018-Jan-25 10:58N 54°20' W 130°19'0 0.0
2018-Jan-25 10:28N 54°20' W 130°19'0 0.0
2018-Jan-25 09:58N 54°20' W 130°19'0 0.0
2018-Jan-25 09:28N 54°20' W 130°19'0 0.0
2018-Jan-25 08:58N 54°20' W 130°19'0 0.0
2018-Jan-25 08:25N 54°20' W 130°19'0 0.1
2018-Jan-25 07:58N 54°20' W 130°19'0 0.0
2018-Jan-25 07:28N 54°20' W 130°19'0 0.1
2018-Jan-25 06:58N 54°20' W 130°19'0 0.0
2018-Jan-25 06:28N 54°20' W 130°19'0 0.0
2018-Jan-25 05:58N 54°20' W 130°19'0 0.0
2018-Jan-25 05:28N 54°20' W 130°19'0 0.0
2018-Jan-25 04:58N 54°20' W 130°19'0 0.0
2018-Jan-25 04:28N 54°20' W 130°19'0 0.0
2018-Jan-25 03:58N 54°20' W 130°19'0 0.0
2018-Jan-25 03:28N 54°20' W 130°19'0 0.1
2018-Jan-25 02:58N 54°20' W 130°19'0 0.1
2018-Jan-25 02:28N 54°20' W 130°19'0 0.1
2018-Jan-25 01:58N 54°20' W 130°19'0 1.0
2018-Jan-25 01:31N 54°20' W 130°19'2 3.7
2018-Jan-25 01:00N 54°18' W 130°22'4 7.7
2018-Jan-25 00:30N 54°14' W 130°21'1 1.1
2018-Jan-24 23:59N 54°14' W 130°20'0 0.0
2018-Jan-24 23:29N 54°14' W 130°20'0 0.0
2018-Jan-24 22:59N 54°14' W 130°20'0 0.0
2018-Jan-24 22:29N 54°14' W 130°20'0 0.0
2018-Jan-24 21:59N 54°14' W 130°20'0 0.0
2018-Jan-24 21:29N 54°14' W 130°20'0 0.0
2018-Jan-24 20:59N 54°14' W 130°20'0 0.0
2018-Jan-24 20:29N 54°14' W 130°20'0 0.0
2018-Jan-24 19:59N 54°14' W 130°20'0 0.0
2018-Jan-24 19:29N 54°14' W 130°20'0 0.0
2018-Jan-24 18:59N 54°14' W 130°20'0 0.0
2018-Jan-24 18:29N 54°14' W 130°20'0 0.0
2018-Jan-24 17:59N 54°14' W 130°20'0 0.0
2018-Jan-24 17:29N 54°14' W 130°20'0 0.0
2018-Jan-24 16:59N 54°14' W 130°20'0 0.0
2018-Jan-24 16:29N 54°14' W 130°20'0 0.0
2018-Jan-24 15:59N 54°14' W 130°20'0 0.0
2018-Jan-24 15:29N 54°14' W 130°20'0 0.0
2018-Jan-24 14:59N 54°14' W 130°20'0 0.0
2018-Jan-24 14:29N 54°14' W 130°20'0 0.0
2018-Jan-24 13:59N 54°14' W 130°20'0 0.0
2018-Jan-24 13:29N 54°14' W 130°20'0 0.0
2018-Jan-24 12:59N 54°14' W 130°20'0 0.0
2018-Jan-24 12:29N 54°14' W 130°20'0 0.0
2018-Jan-24 11:59N 54°14' W 130°20'0 0.0
2018-Jan-24 11:29N 54°14' W 130°20'0 0.0
2018-Jan-24 10:59N 54°14' W 130°20'0 0.0
2018-Jan-24 10:29N 54°14' W 130°20'0 0.0
2018-Jan-24 09:59N 54°14' W 130°20'0 0.0
2018-Jan-24 09:29N 54°14' W 130°20'0 0.0
2018-Jan-24 08:59N 54°14' W 130°20'0 0.0
2018-Jan-24 08:29N 54°14' W 130°20'0 0.0
2018-Jan-24 07:59N 54°14' W 130°20'0 0.0
2018-Jan-24 07:29N 54°14' W 130°20'0 0.0
2018-Jan-24 06:59N 54°14' W 130°20'0 0.0
2018-Jan-24 06:29N 54°14' W 130°20'0 0.0
2018-Jan-24 05:59N 54°14' W 130°20'0 0.0
2018-Jan-24 05:29N 54°14' W 130°20'0 0.0
2018-Jan-24 04:59N 54°14' W 130°20'0 0.0
2018-Jan-24 04:29N 54°14' W 130°20'0 0.0
2018-Jan-24 03:59N 54°14' W 130°20'0 0.0
2018-Jan-24 03:29N 54°14' W 130°20'0 0.0
2018-Jan-24 02:59N 54°14' W 130°20'0 0.0
2018-Jan-24 02:29N 54°14' W 130°20'0 0.0
2018-Jan-24 01:59N 54°14' W 130°20'0 0.0
2018-Jan-24 01:29N 54°14' W 130°20'0 0.0
2018-Jan-24 00:59N 54°14' W 130°20'0 0.0
2018-Jan-24 00:29N 54°14' W 130°20'0 0.0
2018-Jan-23 23:59N 54°14' W 130°20'0 0.0
2018-Jan-23 23:29N 54°14' W 130°20'0 0.0
2018-Jan-23 22:59N 54°14' W 130°20'0 0.0
2018-Jan-23 22:29N 54°14' W 130°20'0 0.0
2018-Jan-23 21:59N 54°14' W 130°20'0 0.0
2018-Jan-23 21:29N 54°14' W 130°20'0 0.0
2018-Jan-23 20:59N 54°14' W 130°20'0 0.0
2018-Jan-23 20:29N 54°14' W 130°20'0 0.0
2018-Jan-23 19:59N 54°14' W 130°20'0 0.0
2018-Jan-23 19:29N 54°14' W 130°20'0 0.0
2018-Jan-23 18:59N 54°14' W 130°20'0 0.0
2018-Jan-23 18:29N 54°14' W 130°20'0 0.0
2018-Jan-23 17:59N 54°14' W 130°20'0 0.0
2018-Jan-23 17:29N 54°14' W 130°20'0 0.0
2018-Jan-23 16:59N 54°14' W 130°20'0 0.0
2018-Jan-23 16:29N 54°14' W 130°20'0 0.0
2018-Jan-23 15:59N 54°14' W 130°20'0 0.0
2018-Jan-23 15:29N 54°14' W 130°20'0 0.0
2018-Jan-23 14:59N 54°14' W 130°20'0 0.0
2018-Jan-23 14:29N 54°14' W 130°20'0 0.0
2018-Jan-23 13:59N 54°14' W 130°20'0 0.0
2018-Jan-23 13:29N 54°14' W 130°20'0 0.0
2018-Jan-23 12:59N 54°14' W 130°20'0 0.0
2018-Jan-23 12:29N 54°14' W 130°20'0 0.0
2018-Jan-23 11:59N 54°14' W 130°20'0 0.0
2018-Jan-23 11:29N 54°14' W 130°20'0 0.0
2018-Jan-23 10:59N 54°14' W 130°20'0 0.0
2018-Jan-23 10:29N 54°14' W 130°20'0 0.0
2018-Jan-23 09:59N 54°14' W 130°20'0 0.0
2018-Jan-23 09:29N 54°14' W 130°20'0 0.0
2018-Jan-23 08:59N 54°14' W 130°20'0 0.0
2018-Jan-23 08:29N 54°14' W 130°20'0 0.0
2018-Jan-23 07:59N 54°14' W 130°20'0 0.0
2018-Jan-23 07:29N 54°14' W 130°20'0 0.0
2018-Jan-23 06:59N 54°14' W 130°20'0 0.0
2018-Jan-23 06:29N 54°14' W 130°20'0 0.0
2018-Jan-23 05:59N 54°14' W 130°20'0 0.0
2018-Jan-23 05:29N 54°14' W 130°20'  

Dump ship's entire track history